Amor, Minnesota
Current Conditions -  °F | °C
As of 11:14 PM on Friday 21 Nov 2014 (Local Time) from KFFM Reporting Station
Clear Clear  
Wind Chill: 19°   Ceiling: Unl
Heat Index: 28°   Visibility: 10mi
Dew Point: 23°   Wind: 10mph
Humidity: 80%   Direction: 160°SSE
Pressure: 29.75"   Gusts: NA
Location:  46.3166°N, 95.7183°W
Report Text: KFFM 220514Z AUTO 16009KT 10SM CLR M02/M05 A2975 RMK AO2
Loading
Personal Weather Stations






























Interactive Weather Map New forecast layout! Learn more

10-Day Weather Forecast

Advertisements
Track Severe Weather on mobile